sensor_id;sensor_type;location;lat;lon;timestamp;P1;durP1;ratioP1;P2;durP2;ratioP2
40290;SDS011;26000;48.304;13.626;2023-05-14T00:02:18;10.30;;;9.20;;
40290;SDS011;26000;48.304;13.626;2023-05-14T00:04:44;10.70;;;9.10;;
40290;SDS011;26000;48.304;13.626;2023-05-14T00:07:10;10.77;;;9.05;;
40290;SDS011;26000;48.304;13.626;2023-05-14T00:09:36;11.65;;;9.35;;
40290;SDS011;26000;48.304;13.626;2023-05-14T00:12:02;10.60;;;8.80;;
40290;SDS011;26000;48.304;13.626;2023-05-14T00:14:27;10.60;;;8.25;;
40290;SDS011;26000;48.304;13.626;2023-05-14T00:16:53;10.18;;;8.77;;
40290;SDS011;26000;48.304;13.626;2023-05-14T00:19:19;10.45;;;8.77;;
40290;SDS011;26000;48.304;13.626;2023-05-14T00:21:45;11.75;;;8.75;;
40290;SDS011;26000;48.304;13.626;2023-05-14T00:24:11;12.15;;;8.80;;
40290;SDS011;26000;48.304;13.626;2023-05-14T00:26:37;9.35;;;7.85;;
40290;SDS011;26000;48.304;13.626;2023-05-14T00:29:02;9.38;;;7.88;;
40290;SDS011;26000;48.304;13.626;2023-05-14T00:31:28;10.82;;;8.02;;
40290;SDS011;26000;48.304;13.626;2023-05-14T00:33:54;9.13;;;7.63;;
40290;SDS011;26000;48.304;13.626;2023-05-14T00:36:19;9.77;;;8.07;;
40290;SDS011;26000;48.304;13.626;2023-05-14T00:38:45;9.88;;;8.30;;
40290;SDS011;26000;48.304;13.626;2023-05-14T00:41:10;10.82;;;8.38;;
40290;SDS011;26000;48.304;13.626;2023-05-14T00:43:36;10.27;;;8.63;;
40290;SDS011;26000;48.304;13.626;2023-05-14T00:46:02;10.10;;;8.63;;
40290;SDS011;26000;48.304;13.626;2023-05-14T00:48:28;9.02;;;7.50;;
40290;SDS011;26000;48.304;13.626;2023-05-14T00:50:54;11.55;;;8.25;;
40290;SDS011;26000;48.304;13.626;2023-05-14T00:53:19;12.30;;;8.20;;
40290;SDS011;26000;48.304;13.626;2023-05-14T00:55:45;9.57;;;8.07;;
40290;SDS011;26000;48.304;13.626;2023-05-14T00:58:13;9.27;;;7.82;;
40290;SDS011;26000;48.304;13.626;2023-05-14T01:00:40;14.25;;;7.80;;
40290;SDS011;26000;48.304;13.626;2023-05-14T01:03:06;9.20;;;7.97;;
40290;SDS011;26000;48.304;13.626;2023-05-14T01:05:38;10.07;;;8.10;;
40290;SDS011;26000;48.304;13.626;2023-05-14T01:11:34;11.57;;;8.15;;
40290;SDS011;26000;48.304;13.626;2023-05-14T01:16:46;11.45;;;8.88;;
40290;SDS011;26000;48.304;13.626;2023-05-14T01:19:59;9.93;;;8.18;;
40290;SDS011;26000;48.304;13.626;2023-05-14T01:22:06;9.85;;;8.30;;
40290;SDS011;26000;48.304;13.626;2023-05-14T01:24:31;10.10;;;8.77;;
40290;SDS011;26000;48.304;13.626;2023-05-14T01:27:00;11.93;;;9.15;;
40290;SDS011;26000;48.304;13.626;2023-05-14T01:29:32;11.63;;;9.23;;
40290;SDS011;26000;48.304;13.626;2023-05-14T01:32:01;11.25;;;9.18;;
40290;SDS011;26000;48.304;13.626;2023-05-14T01:34:31;12.15;;;9.02;;
40290;SDS011;26000;48.304;13.626;2023-05-14T01:37:00;10.20;;;8.73;;
40290;SDS011;26000;48.304;13.626;2023-05-14T01:39:26;10.38;;;8.68;;
40290;SDS011;26000;48.304;13.626;2023-05-14T01:41:52;11.02;;;9.15;;
40290;SDS011;26000;48.304;13.626;2023-05-14T01:44:19;11.88;;;9.30;;
40290;SDS011;26000;48.304;13.626;2023-05-14T01:46:46;10.68;;;8.95;;
40290;SDS011;26000;48.304;13.626;2023-05-14T01:49:11;12.25;;;8.60;;
40290;SDS011;26000;48.304;13.626;2023-05-14T01:51:37;11.95;;;10.05;;
40290;SDS011;26000;48.304;13.626;2023-05-14T01:54:02;14.43;;;10.93;;
40290;SDS011;26000;48.304;13.626;2023-05-14T01:56:28;12.50;;;10.13;;
40290;SDS011;26000;48.304;13.626;2023-05-14T01:58:54;12.32;;;10.18;;
40290;SDS011;26000;48.304;13.626;2023-05-14T02:01:21;16.02;;;10.23;;
40290;SDS011;26000;48.304;13.626;2023-05-14T02:03:46;12.63;;;9.68;;
40290;SDS011;26000;48.304;13.626;2023-05-14T02:06:12;11.35;;;9.23;;
40290;SDS011;26000;48.304;13.626;2023-05-14T02:08:38;12.07;;;9.52;;
40290;SDS011;26000;48.304;13.626;2023-05-14T02:11:03;12.10;;;9.30;;
40290;SDS011;26000;48.304;13.626;2023-05-14T02:13:29;11.65;;;9.48;;
40290;SDS011;26000;48.304;13.626;2023-05-14T02:15:55;11.93;;;9.25;;
40290;SDS011;26000;48.304;13.626;2023-05-14T02:18:20;10.95;;;8.38;;
40290;SDS011;26000;48.304;13.626;2023-05-14T02:20:46;12.77;;;9.05;;
40290;SDS011;26000;48.304;13.626;2023-05-14T02:23:12;10.93;;;9.10;;
40290;SDS011;26000;48.304;13.626;2023-05-14T02:25:37;12.90;;;9.80;;
40290;SDS011;26000;48.304;13.626;2023-05-14T02:28:03;13.80;;;9.98;;
40290;SDS011;26000;48.304;13.626;2023-05-14T02:30:29;11.48;;;9.98;;
40290;SDS011;26000;48.304;13.626;2023-05-14T02:32:55;12.40;;;10.32;;
40290;SDS011;26000;48.304;13.626;2023-05-14T02:35:21;13.00;;;10.07;;
40290;SDS011;26000;48.304;13.626;2023-05-14T02:37:47;13.70;;;9.68;;
40290;SDS011;26000;48.304;13.626;2023-05-14T02:40:12;11.43;;;9.20;;
40290;SDS011;26000;48.304;13.626;2023-05-14T02:42:38;10.75;;;8.90;;
40290;SDS011;26000;48.304;13.626;2023-05-14T02:45:04;10.07;;;8.68;;
40290;SDS011;26000;48.304;13.626;2023-05-14T02:47:30;11.98;;;9.30;;
40290;SDS011;26000;48.304;13.626;2023-05-14T02:49:56;11.93;;;9.90;;
40290;SDS011;26000;48.304;13.626;2023-05-14T02:52:21;14.05;;;10.43;;
40290;SDS011;26000;48.304;13.626;2023-05-14T02:54:47;12.70;;;10.40;;
40290;SDS011;26000;48.304;13.626;2023-05-14T02:57:13;15.30;;;12.15;;
40290;SDS011;26000;48.304;13.626;2023-05-14T02:59:38;15.73;;;12.60;;
40290;SDS011;26000;48.304;13.626;2023-05-14T03:02:04;16.23;;;12.30;;
40290;SDS011;26000;48.304;13.626;2023-05-14T03:04:30;15.00;;;11.70;;
40290;SDS011;26000;48.304;13.626;2023-05-14T03:06:55;16.98;;;12.60;;
40290;SDS011;26000;48.304;13.626;2023-05-14T03:09:21;19.15;;;14.15;;
40290;SDS011;26000;48.304;13.626;2023-05-14T03:11:46;17.88;;;13.38;;
40290;SDS011;26000;48.304;13.626;2023-05-14T03:14:13;16.92;;;13.30;;
40290;SDS011;26000;48.304;13.626;2023-05-14T03:16:39;18.38;;;13.80;;
40290;SDS011;26000;48.304;13.626;2023-05-14T03:19:06;18.52;;;14.43;;
40290;SDS011;26000;48.304;13.626;2023-05-14T03:21:32;19.38;;;14.40;;
40290;SDS011;26000;48.304;13.626;2023-05-14T03:23:57;21.40;;;15.10;;
40290;SDS011;26000;48.304;13.626;2023-05-14T03:26:23;20.15;;;15.02;;
40290;SDS011;26000;48.304;13.626;2023-05-14T03:28:49;20.95;;;15.20;;
40290;SDS011;26000;48.304;13.626;2023-05-14T03:31:15;19.77;;;14.80;;
40290;SDS011;26000;48.304;13.626;2023-05-14T03:33:40;19.55;;;14.50;;
40290;SDS011;26000;48.304;13.626;2023-05-14T03:36:06;17.95;;;14.18;;
40290;SDS011;26000;48.304;13.626;2023-05-14T03:38:32;18.67;;;14.65;;
40290;SDS011;26000;48.304;13.626;2023-05-14T03:40:57;19.15;;;14.50;;
40290;SDS011;26000;48.304;13.626;2023-05-14T03:43:23;17.42;;;14.30;;
40290;SDS011;26000;48.304;13.626;2023-05-14T03:45:49;13.27;;;11.27;;
40290;SDS011;26000;48.304;13.626;2023-05-14T03:48:16;13.52;;;10.45;;
40290;SDS011;26000;48.304;13.626;2023-05-14T03:50:43;11.30;;;9.85;;
40290;SDS011;26000;48.304;13.626;2023-05-14T03:53:09;15.20;;;10.32;;
40290;SDS011;26000;48.304;13.626;2023-05-14T03:55:35;13.63;;;10.05;;
40290;SDS011;26000;48.304;13.626;2023-05-14T03:58:00;13.27;;;9.57;;
40290;SDS011;26000;48.304;13.626;2023-05-14T04:00:27;13.32;;;10.35;;
40290;SDS011;26000;48.304;13.626;2023-05-14T04:02:52;15.98;;;11.07;;
40290;SDS011;26000;48.304;13.626;2023-05-14T04:05:18;14.32;;;11.45;;
40290;SDS011;26000;48.304;13.626;2023-05-14T04:07:44;15.02;;;11.45;;
40290;SDS011;26000;48.304;13.626;2023-05-14T04:10:10;15.18;;;12.57;;
40290;SDS011;26000;48.304;13.626;2023-05-14T04:12:36;16.60;;;12.93;;
40290;SDS011;26000;48.304;13.626;2023-05-14T04:15:02;16.15;;;12.65;;
40290;SDS011;26000;48.304;13.626;2023-05-14T04:17:28;14.60;;;12.00;;
40290;SDS011;26000;48.304;13.626;2023-05-14T04:19:54;16.10;;;12.68;;
40290;SDS011;26000;48.304;13.626;2023-05-14T04:22:20;15.65;;;12.35;;
40290;SDS011;26000;48.304;13.626;2023-05-14T04:24:45;16.13;;;12.70;;
40290;SDS011;26000;48.304;13.626;2023-05-14T04:27:13;18.17;;;13.75;;
40290;SDS011;26000;48.304;13.626;2023-05-14T04:29:44;17.20;;;12.93;;
40290;SDS011;26000;48.304;13.626;2023-05-14T04:32:10;17.73;;;13.55;;
40290;SDS011;26000;48.304;13.626;2023-05-14T04:34:36;16.08;;;13.32;;
40290;SDS011;26000;48.304;13.626;2023-05-14T04:37:02;18.35;;;14.35;;
40290;SDS011;26000;48.304;13.626;2023-05-14T04:39:28;18.25;;;14.27;;
40290;SDS011;26000;48.304;13.626;2023-05-14T04:41:54;17.60;;;14.52;;
40290;SDS011;26000;48.304;13.626;2023-05-14T04:44:19;21.00;;;15.77;;
40290;SDS011;26000;48.304;13.626;2023-05-14T04:46:45;28.10;;;17.70;;
40290;SDS011;26000;48.304;13.626;2023-05-14T04:49:11;21.88;;;16.85;;
40290;SDS011;26000;48.304;13.626;2023-05-14T04:51:36;32.35;;;21.63;;
40290;SDS011;26000;48.304;13.626;2023-05-14T04:54:02;27.15;;;19.55;;
40290;SDS011;26000;48.304;13.626;2023-05-14T04:56:28;23.77;;;17.23;;
40290;SDS011;26000;48.304;13.626;2023-05-14T04:58:53;21.75;;;16.88;;
40290;SDS011;26000;48.304;13.626;2023-05-14T05:01:19;23.90;;;17.70;;
40290;SDS011;26000;48.304;13.626;2023-05-14T05:03:46;21.65;;;16.98;;
40290;SDS011;26000;48.304;13.626;2023-05-14T05:06:11;21.63;;;16.92;;
40290;SDS011;26000;48.304;13.626;2023-05-14T05:08:37;21.77;;;16.75;;
40290;SDS011;26000;48.304;13.626;2023-05-14T05:11:05;21.92;;;16.10;;
40290;SDS011;26000;48.304;13.626;2023-05-14T05:13:30;21.50;;;16.73;;
40290;SDS011;26000;48.304;13.626;2023-05-14T05:15:56;19.35;;;15.27;;
40290;SDS011;26000;48.304;13.626;2023-05-14T05:18:22;20.20;;;15.88;;
40290;SDS011;26000;48.304;13.626;2023-05-14T05:20:48;19.88;;;15.23;;
40290;SDS011;26000;48.304;13.626;2023-05-14T05:23:13;20.63;;;14.70;;
40290;SDS011;26000;48.304;13.626;2023-05-14T05:25:39;17.83;;;14.10;;
40290;SDS011;26000;48.304;13.626;2023-05-14T05:28:05;18.13;;;14.07;;
40290;SDS011;26000;48.304;13.626;2023-05-14T05:30:30;17.02;;;13.50;;
40290;SDS011;26000;48.304;13.626;2023-05-14T05:32:56;17.20;;;13.20;;
40290;SDS011;26000;48.304;13.626;2023-05-14T05:35:22;17.45;;;13.90;;
40290;SDS011;26000;48.304;13.626;2023-05-14T05:37:47;18.05;;;14.27;;
40290;SDS011;26000;48.304;13.626;2023-05-14T05:40:13;18.02;;;14.40;;
40290;SDS011;26000;48.304;13.626;2023-05-14T05:42:40;18.55;;;13.52;;
40290;SDS011;26000;48.304;13.626;2023-05-14T05:45:06;16.33;;;14.23;;
40290;SDS011;26000;48.304;13.626;2023-05-14T05:47:32;17.73;;;14.35;;
40290;SDS011;26000;48.304;13.626;2023-05-14T05:49:57;18.08;;;14.00;;
40290;SDS011;26000;48.304;13.626;2023-05-14T05:52:23;20.58;;;15.02;;
40290;SDS011;26000;48.304;13.626;2023-05-14T05:54:49;19.05;;;14.48;;
40290;SDS011;26000;48.304;13.626;2023-05-14T05:57:14;18.40;;;13.93;;
40290;SDS011;26000;48.304;13.626;2023-05-14T05:59:40;18.88;;;14.88;;
40290;SDS011;26000;48.304;13.626;2023-05-14T06:02:05;19.90;;;16.25;;
40290;SDS011;26000;48.304;13.626;2023-05-14T06:04:31;20.95;;;15.30;;
40290;SDS011;26000;48.304;13.626;2023-05-14T06:06:57;21.23;;;16.80;;
40290;SDS011;26000;48.304;13.626;2023-05-14T06:09:22;24.42;;;16.73;;
40290;SDS011;26000;48.304;13.626;2023-05-14T06:11:48;20.08;;;16.20;;
40290;SDS011;26000;48.304;13.626;2023-05-14T06:14:13;17.27;;;14.40;;
40290;SDS011;26000;48.304;13.626;2023-05-14T06:16:39;20.85;;;15.65;;
40290;SDS011;26000;48.304;13.626;2023-05-14T06:19:05;20.50;;;15.55;;
40290;SDS011;26000;48.304;13.626;2023-05-14T06:21:32;20.45;;;16.60;;
40290;SDS011;26000;48.304;13.626;2023-05-14T06:23:58;20.50;;;16.65;;
40290;SDS011;26000;48.304;13.626;2023-05-14T06:26:23;20.38;;;15.10;;
40290;SDS011;26000;48.304;13.626;2023-05-14T06:28:50;18.85;;;15.45;;
40290;SDS011;26000;48.304;13.626;2023-05-14T06:31:16;20.15;;;15.75;;
40290;SDS011;26000;48.304;13.626;2023-05-14T06:33:42;21.98;;;15.18;;
40290;SDS011;26000;48.304;13.626;2023-05-14T06:36:09;17.40;;;14.35;;
40290;SDS011;26000;48.304;13.626;2023-05-14T06:38:34;19.40;;;15.50;;
40290;SDS011;26000;48.304;13.626;2023-05-14T06:41:00;17.45;;;13.55;;
40290;SDS011;26000;48.304;13.626;2023-05-14T06:43:26;20.73;;;15.07;;
40290;SDS011;26000;48.304;13.626;2023-05-14T06:45:52;18.70;;;15.25;;
40290;SDS011;26000;48.304;13.626;2023-05-14T06:48:18;19.63;;;14.85;;
40290;SDS011;26000;48.304;13.626;2023-05-14T06:50:44;18.45;;;14.88;;
40290;SDS011;26000;48.304;13.626;2023-05-14T06:53:11;21.05;;;15.15;;
40290;SDS011;26000;48.304;13.626;2023-05-14T06:55:37;19.05;;;15.60;;
40290;SDS011;26000;48.304;13.626;2023-05-14T06:58:04;19.77;;;16.27;;
40290;SDS011;26000;48.304;13.626;2023-05-14T07:00:31;18.17;;;15.27;;
40290;SDS011;26000;48.304;13.626;2023-05-14T07:02:56;21.52;;;15.82;;
40290;SDS011;26000;48.304;13.626;2023-05-14T07:05:23;18.65;;;15.93;;
40290;SDS011;26000;48.304;13.626;2023-05-14T07:07:48;19.00;;;15.50;;
40290;SDS011;26000;48.304;13.626;2023-05-14T07:10:14;21.38;;;16.05;;
40290;SDS011;26000;48.304;13.626;2023-05-14T07:12:40;19.48;;;15.45;;
40290;SDS011;26000;48.304;13.626;2023-05-14T07:15:05;18.00;;;15.15;;
40290;SDS011;26000;48.304;13.626;2023-05-14T07:17:32;19.42;;;16.30;;
40290;SDS011;26000;48.304;13.626;2023-05-14T07:19:57;18.23;;;15.02;;
40290;SDS011;26000;48.304;13.626;2023-05-14T07:22:23;19.73;;;16.17;;
40290;SDS011;26000;48.304;13.626;2023-05-14T07:24:49;21.58;;;16.23;;
40290;SDS011;26000;48.304;13.626;2023-05-14T07:27:14;18.30;;;15.63;;
40290;SDS011;26000;48.304;13.626;2023-05-14T07:29:41;18.38;;;15.55;;
40290;SDS011;26000;48.304;13.626;2023-05-14T07:32:07;18.30;;;15.43;;
40290;SDS011;26000;48.304;13.626;2023-05-14T07:34:33;17.25;;;14.85;;
40290;SDS011;26000;48.304;13.626;2023-05-14T07:36:58;18.98;;;16.23;;
40290;SDS011;26000;48.304;13.626;2023-05-14T07:39:24;23.20;;;16.52;;
40290;SDS011;26000;48.304;13.626;2023-05-14T07:41:50;20.02;;;16.10;;
40290;SDS011;26000;48.304;13.626;2023-05-14T07:44:16;19.13;;;15.75;;
40290;SDS011;26000;48.304;13.626;2023-05-14T07:46:41;21.77;;;16.73;;
40290;SDS011;26000;48.304;13.626;2023-05-14T07:49:07;17.65;;;15.05;;
40290;SDS011;26000;48.304;13.626;2023-05-14T07:51:33;18.17;;;15.25;;
40290;SDS011;26000;48.304;13.626;2023-05-14T07:53:58;20.80;;;15.50;;
40290;SDS011;26000;48.304;13.626;2023-05-14T07:56:24;18.95;;;15.80;;
40290;SDS011;26000;48.304;13.626;2023-05-14T07:58:50;17.10;;;14.30;;
40290;SDS011;26000;48.304;13.626;2023-05-14T08:01:16;19.75;;;15.40;;
40290;SDS011;26000;48.304;13.626;2023-05-14T08:03:42;16.65;;;14.48;;
40290;SDS011;26000;48.304;13.626;2023-05-14T08:06:07;17.15;;;14.70;;
40290;SDS011;26000;48.304;13.626;2023-05-14T08:08:33;18.55;;;15.48;;
40290;SDS011;26000;48.304;13.626;2023-05-14T08:10:59;19.45;;;15.73;;
40290;SDS011;26000;48.304;13.626;2023-05-14T08:13:24;15.07;;;13.48;;
40290;SDS011;26000;48.304;13.626;2023-05-14T08:15:50;15.82;;;13.80;;
40290;SDS011;26000;48.304;13.626;2023-05-14T08:18:16;19.08;;;14.48;;
40290;SDS011;26000;48.304;13.626;2023-05-14T08:20:42;22.30;;;14.93;;
40290;SDS011;26000;48.304;13.626;2023-05-14T08:23:07;17.65;;;14.52;;
40290;SDS011;26000;48.304;13.626;2023-05-14T08:25:33;17.52;;;14.82;;
40290;SDS011;26000;48.304;13.626;2023-05-14T08:27:59;15.77;;;14.07;;
40290;SDS011;26000;48.304;13.626;2023-05-14T08:30:25;17.85;;;13.18;;
40290;SDS011;26000;48.304;13.626;2023-05-14T08:32:51;17.73;;;14.13;;
40290;SDS011;26000;48.304;13.626;2023-05-14T08:35:17;16.63;;;14.20;;
40290;SDS011;26000;48.304;13.626;2023-05-14T08:37:43;16.63;;;12.73;;
40290;SDS011;26000;48.304;13.626;2023-05-14T08:40:09;17.73;;;14.48;;
40290;SDS011;26000;48.304;13.626;2023-05-14T08:42:39;17.10;;;13.48;;
40290;SDS011;26000;48.304;13.626;2023-05-14T08:45:05;14.45;;;12.38;;
40290;SDS011;26000;48.304;13.626;2023-05-14T08:47:46;17.45;;;13.65;;
40290;SDS011;26000;48.304;13.626;2023-05-14T08:50:16;20.92;;;15.65;;
40290;SDS011;26000;48.304;13.626;2023-05-14T08:52:43;21.90;;;17.08;;
40290;SDS011;26000;48.304;13.626;2023-05-14T08:55:10;19.55;;;14.63;;
40290;SDS011;26000;48.304;13.626;2023-05-14T08:57:36;16.83;;;12.75;;
40290;SDS011;26000;48.304;13.626;2023-05-14T09:00:03;16.55;;;12.68;;
40290;SDS011;26000;48.304;13.626;2023-05-14T09:02:32;13.77;;;12.18;;
40290;SDS011;26000;48.304;13.626;2023-05-14T09:04:59;15.32;;;12.20;;
40290;SDS011;26000;48.304;13.626;2023-05-14T09:07:26;16.30;;;11.57;;
40290;SDS011;26000;48.304;13.626;2023-05-14T09:09:52;13.82;;;11.57;;
40290;SDS011;26000;48.304;13.626;2023-05-14T09:12:18;15.25;;;12.13;;
40290;SDS011;26000;48.304;13.626;2023-05-14T09:14:44;15.95;;;11.68;;
40290;SDS011;26000;48.304;13.626;2023-05-14T09:17:11;14.55;;;11.73;;
40290;SDS011;26000;48.304;13.626;2023-05-14T09:19:40;14.20;;;11.88;;
40290;SDS011;26000;48.304;13.626;2023-05-14T09:22:13;13.95;;;11.45;;
40290;SDS011;26000;48.304;13.626;2023-05-14T09:24:40;14.15;;;12.05;;
40290;SDS011;26000;48.304;13.626;2023-05-14T09:27:06;14.63;;;11.80;;
40290;SDS011;26000;48.304;13.626;2023-05-14T09:29:33;15.52;;;11.80;;
40290;SDS011;26000;48.304;13.626;2023-05-14T09:31:59;13.55;;;12.07;;
40290;SDS011;26000;48.304;13.626;2023-05-14T09:34:30;15.02;;;12.57;;
40290;SDS011;26000;48.304;13.626;2023-05-14T09:36:57;14.85;;;12.65;;
40290;SDS011;26000;48.304;13.626;2023-05-14T09:39:24;16.83;;;12.88;;
40290;SDS011;26000;48.304;13.626;2023-05-14T09:41:51;12.90;;;11.32;;
40290;SDS011;26000;48.304;13.626;2023-05-14T09:44:17;16.15;;;11.77;;
40290;SDS011;26000;48.304;13.626;2023-05-14T09:46:44;13.50;;;11.20;;
40290;SDS011;26000;48.304;13.626;2023-05-14T09:49:10;14.68;;;11.38;;
40290;SDS011;26000;48.304;13.626;2023-05-14T09:51:36;15.98;;;11.35;;
40290;SDS011;26000;48.304;13.626;2023-05-14T09:54:02;12.48;;;10.85;;
40290;SDS011;26000;48.304;13.626;2023-05-14T09:56:29;11.60;;;10.40;;
40290;SDS011;26000;48.304;13.626;2023-05-14T09:58:56;13.23;;;10.23;;
40290;SDS011;26000;48.304;13.626;2023-05-14T10:01:22;15.85;;;10.15;;
40290;SDS011;26000;48.304;13.626;2023-05-14T10:03:50;13.93;;;10.55;;
40290;SDS011;26000;48.304;13.626;2023-05-14T10:06:23;11.25;;;9.88;;
40290;SDS011;26000;48.304;13.626;2023-05-14T10:08:53;13.35;;;9.63;;
40290;SDS011;26000;48.304;13.626;2023-05-14T10:11:24;10.20;;;9.10;;
40290;SDS011;26000;48.304;13.626;2023-05-14T10:14:02;10.75;;;9.65;;
40290;SDS011;26000;48.304;13.626;2023-05-14T10:16:33;11.45;;;9.48;;
40290;SDS011;26000;48.304;13.626;2023-05-14T10:19:05;12.07;;;9.57;;
40290;SDS011;26000;48.304;13.626;2023-05-14T10:21:33;10.48;;;9.38;;
40290;SDS011;26000;48.304;13.626;2023-05-14T10:24:01;12.98;;;10.50;;
40290;SDS011;26000;48.304;13.626;2023-05-14T10:26:29;11.40;;;10.10;;
40290;SDS011;26000;48.304;13.626;2023-05-14T10:28:56;10.95;;;9.85;;
40290;SDS011;26000;48.304;13.626;2023-05-14T10:37:03;14.02;;;10.18;;
40290;SDS011;26000;48.304;13.626;2023-05-14T10:39:41;14.20;;;10.48;;
40290;SDS011;26000;48.304;13.626;2023-05-14T10:42:22;15.43;;;10.50;;
40290;SDS011;26000;48.304;13.626;2023-05-14T10:47:20;10.75;;;9.65;;
40290;SDS011;26000;48.304;13.626;2023-05-14T10:49:46;12.15;;;9.38;;
40290;SDS011;26000;48.304;13.626;2023-05-14T10:52:17;11.73;;;10.02;;
40290;SDS011;26000;48.304;13.626;2023-05-14T10:55:04;11.90;;;9.70;;
40290;SDS011;26000;48.304;13.626;2023-05-14T10:57:36;10.52;;;9.43;;
40290;SDS011;26000;48.304;13.626;2023-05-14T11:00:03;11.70;;;9.70;;
40290;SDS011;26000;48.304;13.626;2023-05-14T11:02:38;14.20;;;10.10;;
40290;SDS011;26000;48.304;13.626;2023-05-14T11:07:44;8.90;;;7.47;;
40290;SDS011;26000;48.304;13.626;2023-05-14T11:10:11;9.52;;;7.65;;
40290;SDS011;26000;48.304;13.626;2023-05-14T11:12:48;7.97;;;7.20;;
40290;SDS011;26000;48.304;13.626;2023-05-14T11:15:19;8.15;;;7.35;;
40290;SDS011;26000;48.304;13.626;2023-05-14T11:17:46;7.82;;;7.07;;
40290;SDS011;26000;48.304;13.626;2023-05-14T11:20:13;8.13;;;7.15;;
40290;SDS011;26000;48.304;13.626;2023-05-14T11:22:41;8.27;;;7.40;;
40290;SDS011;26000;48.304;13.626;2023-05-14T11:25:07;7.55;;;6.78;;
40290;SDS011;26000;48.304;13.626;2023-05-14T11:27:34;7.30;;;6.45;;
40290;SDS011;26000;48.304;13.626;2023-05-14T11:30:01;7.47;;;6.75;;
40290;SDS011;26000;48.304;13.626;2023-05-14T11:32:27;8.38;;;7.50;;
40290;SDS011;26000;48.304;13.626;2023-05-14T11:34:55;10.38;;;7.95;;
40290;SDS011;26000;48.304;13.626;2023-05-14T11:37:21;11.73;;;8.43;;
40290;SDS011;26000;48.304;13.626;2023-05-14T11:42:12;10.30;;;8.98;;
40290;SDS011;26000;48.304;13.626;2023-05-14T11:44:40;12.07;;;9.25;;
40290;SDS011;26000;48.304;13.626;2023-05-14T11:47:08;11.10;;;9.23;;
40290;SDS011;26000;48.304;13.626;2023-05-14T11:49:34;10.38;;;8.73;;
40290;SDS011;26000;48.304;13.626;2023-05-14T11:52:02;12.35;;;9.85;;
40290;SDS011;26000;48.304;13.626;2023-05-14T11:54:33;14.80;;;10.02;;
40290;SDS011;26000;48.304;13.626;2023-05-14T11:57:00;12.13;;;10.30;;
40290;SDS011;26000;48.304;13.626;2023-05-14T11:59:28;11.32;;;10.23;;
40290;SDS011;26000;48.304;13.626;2023-05-14T12:01:56;13.23;;;10.48;;
40290;SDS011;26000;48.304;13.626;2023-05-14T12:04:22;11.32;;;9.80;;
40290;SDS011;26000;48.304;13.626;2023-05-14T12:06:49;10.57;;;9.43;;
40290;SDS011;26000;48.304;13.626;2023-05-14T12:09:24;11.23;;;9.55;;
40290;SDS011;26000;48.304;13.626;2023-05-14T12:11:50;11.65;;;10.45;;
40290;SDS011;26000;48.304;13.626;2023-05-14T12:14:22;13.70;;;9.18;;
40290;SDS011;26000;48.304;13.626;2023-05-14T12:16:49;10.70;;;9.60;;
40290;SDS011;26000;48.304;13.626;2023-05-14T12:19:16;9.90;;;8.90;;
40290;SDS011;26000;48.304;13.626;2023-05-14T12:21:43;9.70;;;8.70;;
40290;SDS011;26000;48.304;13.626;2023-05-14T12:24:15;9.70;;;8.70;;
40290;SDS011;26000;48.304;13.626;2023-05-14T12:26:48;9.65;;;8.65;;
40290;SDS011;26000;48.304;13.626;2023-05-14T12:29:15;10.30;;;9.27;;
40290;SDS011;26000;48.304;13.626;2023-05-14T12:31:45;9.10;;;8.20;;
40290;SDS011;26000;48.304;13.626;2023-05-14T12:34:12;10.15;;;9.07;;
40290;SDS011;26000;48.304;13.626;2023-05-14T12:36:37;11.23;;;9.10;;
40290;SDS011;26000;48.304;13.626;2023-05-14T12:39:03;11.57;;;8.75;;
40290;SDS011;26000;48.304;13.626;2023-05-14T12:41:30;10.80;;;9.40;;
40290;SDS011;26000;48.304;13.626;2023-05-14T12:43:56;10.73;;;9.27;;
40290;SDS011;26000;48.304;13.626;2023-05-14T12:46:23;10.88;;;9.68;;
40290;SDS011;26000;48.304;13.626;2023-05-14T12:48:50;12.02;;;9.82;;
40290;SDS011;26000;48.304;13.626;2023-05-14T12:51:16;9.80;;;8.80;;
40290;SDS011;26000;48.304;13.626;2023-05-14T12:53:42;10.30;;;9.30;;
40290;SDS011;26000;48.304;13.626;2023-05-14T12:56:07;11.07;;;9.57;;
40290;SDS011;26000;48.304;13.626;2023-05-14T12:58:33;10.65;;;9.55;;
40290;SDS011;26000;48.304;13.626;2023-05-14T13:00:59;10.93;;;9.82;;
40290;SDS011;26000;48.304;13.626;2023-05-14T13:03:25;10.57;;;9.32;;
40290;SDS011;26000;48.304;13.626;2023-05-14T13:05:51;9.52;;;8.52;;
40290;SDS011;26000;48.304;13.626;2023-05-14T13:08:17;8.70;;;7.70;;
40290;SDS011;26000;48.304;13.626;2023-05-14T13:10:45;9.32;;;7.78;;
40290;SDS011;26000;48.304;13.626;2023-05-14T13:13:14;8.35;;;7.40;;
40290;SDS011;26000;48.304;13.626;2023-05-14T13:15:40;7.22;;;6.53;;
40290;SDS011;26000;48.304;13.626;2023-05-14T13:18:06;5.60;;;5.10;;
40290;SDS011;26000;48.304;13.626;2023-05-14T13:20:32;7.10;;;5.55;;
40290;SDS011;26000;48.304;13.626;2023-05-14T13:22:58;6.03;;;5.43;;
40290;SDS011;26000;48.304;13.626;2023-05-14T13:25:23;6.25;;;5.65;;
40290;SDS011;26000;48.304;13.626;2023-05-14T13:27:49;6.22;;;5.60;;
40290;SDS011;26000;48.304;13.626;2023-05-14T13:30:18;6.03;;;5.35;;
40290;SDS011;26000;48.304;13.626;2023-05-14T13:32:44;5.65;;;5.03;;
40290;SDS011;26000;48.304;13.626;2023-05-14T13:35:10;5.35;;;4.85;;
40290;SDS011;26000;48.304;13.626;2023-05-14T13:37:36;5.35;;;4.75;;
40290;SDS011;26000;48.304;13.626;2023-05-14T13:40:02;4.85;;;4.30;;
40290;SDS011;26000;48.304;13.626;2023-05-14T13:42:30;5.60;;;4.80;;
40290;SDS011;26000;48.304;13.626;2023-05-14T13:44:57;5.97;;;4.22;;
40290;SDS011;26000;48.304;13.626;2023-05-14T13:47:23;7.40;;;4.55;;
40290;SDS011;26000;48.304;13.626;2023-05-14T13:49:50;4.28;;;3.88;;
40290;SDS011;26000;48.304;13.626;2023-05-14T13:52:16;5.50;;;3.83;;
40290;SDS011;26000;48.304;13.626;2023-05-14T13:54:42;4.25;;;3.85;;
40290;SDS011;26000;48.304;13.626;2023-05-14T13:57:08;5.28;;;4.75;;
40290;SDS011;26000;48.304;13.626;2023-05-14T13:59:34;5.18;;;4.68;;
40290;SDS011;26000;48.304;13.626;2023-05-14T14:01:59;4.18;;;3.78;;
40290;SDS011;26000;48.304;13.626;2023-05-14T14:04:25;3.53;;;3.22;;
40290;SDS011;26000;48.304;13.626;2023-05-14T14:06:53;4.72;;;3.60;;
40290;SDS011;26000;48.304;13.626;2023-05-14T14:09:19;3.85;;;3.55;;
40290;SDS011;26000;48.304;13.626;2023-05-14T14:11:45;3.70;;;3.28;;
40290;SDS011;26000;48.304;13.626;2023-05-14T14:14:11;4.03;;;3.42;;
40290;SDS011;26000;48.304;13.626;2023-05-14T14:16:36;4.85;;;3.65;;
40290;SDS011;26000;48.304;13.626;2023-05-14T14:19:02;4.20;;;3.80;;
40290;SDS011;26000;48.304;13.626;2023-05-14T14:21:27;4.28;;;3.88;;
40290;SDS011;26000;48.304;13.626;2023-05-14T14:23:53;5.30;;;4.30;;
40290;SDS011;26000;48.304;13.626;2023-05-14T14:26:19;5.00;;;3.88;;
40290;SDS011;26000;48.304;13.626;2023-05-14T14:28:45;5.18;;;3.92;;
40290;SDS011;26000;48.304;13.626;2023-05-14T14:31:11;4.70;;;4.10;;
40290;SDS011;26000;48.304;13.626;2023-05-14T14:33:37;4.40;;;4.00;;